createdAt,value
2023-01-29T00:01:29.248Z,7.25
2023-01-29T00:03:57.001Z,6.95
2023-01-29T00:06:24.831Z,7.18
2023-01-29T00:08:52.646Z,7.03
2023-01-29T00:11:20.709Z,7.57
2023-01-29T00:13:48.435Z,7.80
2023-01-29T00:16:16.136Z,7.45
2023-01-29T00:18:45.315Z,6.95
2023-01-29T00:21:14.205Z,6.85
2023-01-29T00:23:42.391Z,6.32
2023-01-29T00:26:11.152Z,7.07
2023-01-29T00:28:39.332Z,6.75
2023-01-29T00:31:11.468Z,6.78
2023-01-29T00:33:39.310Z,6.85
2023-01-29T00:36:11.416Z,7.15
2023-01-29T00:38:40.437Z,6.60
2023-01-29T00:41:25.773Z,6.95
2023-01-29T00:44:10.925Z,6.93
2023-01-29T00:46:38.888Z,6.82
2023-01-29T00:49:07.909Z,7.35
2023-01-29T00:51:38.780Z,7.20
2023-01-29T00:54:07.391Z,7.57
2023-01-29T00:56:36.944Z,6.78
2023-01-29T00:59:05.020Z,6.40
2023-01-29T01:01:50.450Z,6.78
2023-01-29T01:04:18.272Z,7.25
2023-01-29T01:06:47.403Z,6.47
2023-01-29T01:09:32.487Z,6.93
2023-01-29T01:12:00.173Z,6.95
2023-01-29T01:14:27.876Z,7.53
2023-01-29T01:16:55.556Z,7.70
2023-01-29T01:19:23.279Z,8.00
2023-01-29T01:21:52.324Z,7.55
2023-01-29T01:24:20.310Z,7.13
2023-01-29T01:26:48.101Z,6.68
2023-01-29T01:29:15.791Z,6.60
2023-01-29T01:31:43.638Z,6.20
2023-01-29T01:34:11.441Z,6.40
2023-01-29T01:36:39.181Z,6.75
2023-01-29T01:39:08.268Z,6.90
2023-01-29T01:41:36.003Z,7.32
2023-01-29T01:44:06.349Z,7.63
2023-01-29T01:46:36.240Z,7.25
2023-01-29T01:49:06.931Z,7.07
2023-01-29T01:51:38.510Z,7.00
2023-01-29T01:54:12.738Z,7.07
2023-01-29T01:56:44.849Z,6.80
2023-01-29T01:59:17.547Z,7.97
2023-01-29T02:01:50.194Z,7.22
2023-01-29T02:04:39.738Z,6.45
2023-01-29T02:07:28.472Z,5.88
2023-01-29T02:10:02.958Z,6.88
2023-01-29T02:12:31.720Z,6.97
2023-01-29T02:15:00.819Z,7.00
2023-01-29T02:17:28.768Z,6.60
2023-01-29T02:20:08.799Z,7.32
2023-01-29T02:23:09.676Z,7.10
2023-01-29T02:25:58.254Z,6.40
2023-01-29T02:28:36.316Z,6.82
2023-01-29T02:31:12.652Z,6.50
2023-01-29T02:33:56.678Z,6.28
2023-01-29T02:36:33.236Z,6.85
2023-01-29T02:39:08.927Z,6.32
2023-01-29T02:41:43.900Z,6.80
2023-01-29T02:44:23.142Z,7.45
2023-01-29T02:46:57.884Z,6.32
2023-01-29T02:49:32.872Z,7.32
2023-01-29T02:52:07.506Z,7.00
2023-01-29T02:54:43.750Z,7.47
2023-01-29T02:57:17.566Z,7.18
2023-01-29T02:59:52.875Z,7.78
2023-01-29T03:02:27.562Z,7.13
2023-01-29T03:05:01.186Z,7.03
2023-01-29T03:07:42.882Z,6.65
2023-01-29T03:10:17.850Z,6.60
2023-01-29T03:12:52.660Z,6.00
2023-01-29T03:15:27.342Z,6.32
2023-01-29T03:17:59.634Z,6.45
2023-01-29T03:20:32.923Z,7.15
2023-01-29T03:23:07.581Z,6.43
2023-01-29T03:25:54.766Z,7.18
2023-01-29T03:28:40.998Z,6.25
2023-01-29T03:31:30.966Z,7.07
2023-01-29T03:34:04.013Z,6.50
2023-01-29T03:39:06.767Z,6.57
2023-01-29T03:41:38.916Z,6.32
2023-01-29T03:44:15.879Z,7.03
2023-01-29T03:46:53.647Z,7.10
2023-01-29T03:49:30.989Z,6.82
2023-01-29T03:52:04.401Z,6.72
2023-01-29T03:54:43.494Z,7.00
2023-01-29T03:57:17.640Z,6.78
2023-01-29T03:59:53.175Z,6.65
2023-01-29T04:02:27.967Z,6.30
2023-01-29T04:04:58.417Z,6.80
2023-01-29T04:07:27.860Z,6.82
2023-01-29T04:09:59.561Z,6.85
2023-01-29T04:12:31.795Z,7.40
2023-01-29T04:15:02.455Z,6.60
2023-01-29T04:17:38.237Z,6.38
2023-01-29T04:20:07.067Z,6.70
2023-01-29T04:22:37.073Z,7.65
2023-01-29T04:25:08.481Z,6.78
2023-01-29T04:27:44.956Z,6.82
2023-01-29T04:30:23.855Z,7.35
2023-01-29T04:33:04.077Z,6.43
2023-01-29T04:35:37.191Z,6.20
2023-01-29T04:38:12.678Z,6.53
2023-01-29T04:40:50.659Z,6.85
2023-01-29T04:43:27.547Z,7.28
2023-01-29T04:46:08.634Z,6.85
2023-01-29T04:48:44.909Z,7.15
2023-01-29T04:51:19.466Z,7.22
2023-01-29T04:53:52.620Z,6.57
2023-01-29T04:56:25.265Z,6.65
2023-01-29T04:59:00.488Z,7.10
2023-01-29T05:01:33.207Z,7.05
2023-01-29T05:04:06.439Z,7.28
2023-01-29T05:06:34.453Z,7.20
2023-01-29T05:09:03.514Z,7.13
2023-01-29T05:11:33.293Z,6.43
2023-01-29T05:14:03.492Z,7.35
2023-01-29T05:16:42.069Z,6.85
2023-01-29T05:19:13.447Z,7.38
2023-01-29T05:21:44.106Z,7.30
2023-01-29T05:24:13.994Z,6.38
2023-01-29T05:27:00.557Z,7.30
2023-01-29T05:29:28.432Z,6.97
2023-01-29T05:31:56.323Z,7.28
2023-01-29T05:34:25.494Z,6.57
2023-01-29T05:36:53.557Z,7.03
2023-01-29T05:39:21.357Z,6.50
2023-01-29T05:41:49.654Z,6.38
2023-01-29T05:44:17.450Z,6.45
2023-01-29T05:46:46.142Z,6.80
2023-01-29T05:49:14.201Z,6.53
2023-01-29T05:51:43.223Z,6.68
2023-01-29T05:54:12.646Z,7.38
2023-01-29T05:56:40.819Z,6.38
2023-01-29T05:59:08.599Z,6.75
2023-01-29T06:01:36.350Z,7.50
2023-01-29T06:04:04.097Z,7.10
2023-01-29T06:06:31.877Z,6.75
2023-01-29T06:09:01.063Z,7.40
2023-01-29T06:11:28.825Z,6.88
2023-01-29T06:13:56.592Z,7.07
2023-01-29T06:16:24.427Z,7.20
2023-01-29T06:18:52.216Z,6.63
2023-01-29T06:21:20.259Z,7.63
2023-01-29T06:23:48.072Z,6.90
2023-01-29T06:26:17.269Z,6.18
2023-01-29T06:28:45.862Z,6.68
2023-01-29T06:31:35.301Z,7.15
2023-01-29T06:34:01.505Z,7.22
2023-01-29T06:36:29.275Z,6.22
2023-01-29T06:38:57.008Z,6.63
2023-01-29T06:41:26.299Z,7.20
2023-01-29T06:43:54.131Z,6.53
2023-01-29T06:46:22.127Z,6.85
2023-01-29T06:48:49.924Z,7.05
2023-01-29T06:51:17.753Z,6.82
2023-01-29T06:53:46.639Z,7.03
2023-01-29T06:56:14.632Z,7.50
2023-01-29T06:58:44.066Z,6.88
2023-01-29T07:01:25.357Z,7.70
2023-01-29T07:04:00.704Z,6.82
2023-01-29T07:06:29.715Z,7.15
2023-01-29T07:08:57.717Z,7.72
2023-01-29T07:11:25.537Z,6.40
2023-01-29T07:13:54.655Z,6.60
2023-01-29T07:16:23.489Z,6.53
2023-01-29T07:18:51.370Z,6.22
2023-01-29T07:21:19.145Z,6.93
2023-01-29T07:23:47.474Z,6.68
2023-01-29T07:26:15.201Z,6.53
2023-01-29T07:28:42.965Z,6.35
2023-01-29T07:31:14.789Z,6.45
2023-01-29T07:33:44.772Z,6.97
2023-01-29T07:36:13.551Z,7.38
2023-01-29T07:38:41.544Z,6.15
2023-01-29T07:41:10.903Z,6.80
2023-01-29T07:43:38.610Z,7.18
2023-01-29T07:46:06.713Z,7.85
2023-01-29T07:48:35.889Z,7.43
2023-01-29T07:51:03.618Z,6.85
2023-01-29T07:53:31.491Z,7.05
2023-01-29T07:55:59.473Z,7.05
2023-01-29T07:58:27.369Z,6.57
2023-01-29T08:00:55.170Z,6.88
2023-01-29T08:03:22.866Z,5.97
2023-01-29T08:05:52.092Z,6.30
2023-01-29T08:08:20.388Z,6.13
2023-01-29T08:10:48.531Z,6.40
2023-01-29T08:13:16.473Z,6.32
2023-01-29T08:15:45.056Z,6.30
2023-01-29T08:18:12.894Z,6.80
2023-01-29T08:20:40.908Z,6.75
2023-01-29T08:23:16.917Z,6.65
2023-01-29T08:25:45.396Z,5.75
2023-01-29T08:28:13.257Z,6.47
2023-01-29T08:30:41.196Z,7.40
2023-01-29T08:33:09.017Z,6.72
2023-01-29T08:35:36.985Z,6.32
2023-01-29T08:38:06.011Z,5.88
2023-01-29T08:40:36.553Z,5.65
2023-01-29T08:43:07.122Z,6.53
2023-01-29T08:45:38.025Z,6.10
2023-01-29T08:48:06.855Z,5.68
2023-01-29T08:50:35.376Z,5.50
2023-01-29T08:53:05.358Z,5.47
2023-01-29T08:55:33.091Z,6.30
2023-01-29T08:58:02.258Z,6.60
2023-01-29T09:00:30.024Z,6.28
2023-01-29T09:02:59.506Z,6.43
2023-01-29T09:05:27.203Z,6.57
2023-01-29T09:07:55.042Z,7.20
2023-01-29T09:10:22.747Z,6.93
2023-01-29T09:12:50.457Z,6.25
2023-01-29T09:15:19.756Z,5.78
2023-01-29T09:17:49.426Z,6.03
2023-01-29T09:20:18.074Z,6.35
2023-01-29T09:22:46.113Z,6.47
2023-01-29T09:25:14.192Z,6.40
2023-01-29T09:27:42.153Z,6.28
2023-01-29T09:30:11.198Z,6.97
2023-01-29T09:32:55.708Z,6.93
2023-01-29T09:35:24.183Z,7.10
2023-01-29T09:37:52.549Z,7.00
2023-01-29T09:40:27.741Z,8.45
2023-01-29T09:43:02.566Z,7.55
2023-01-29T09:45:31.463Z,6.95
2023-01-29T09:48:03.358Z,6.85
2023-01-29T09:50:35.943Z,6.47
2023-01-29T09:53:13.556Z,6.78
2023-01-29T09:55:47.377Z,6.60
2023-01-29T09:58:21.926Z,7.13
2023-01-29T10:00:58.267Z,7.13
2023-01-29T10:03:42.987Z,6.93
2023-01-29T10:06:24.709Z,6.75
2023-01-29T10:09:37.719Z,6.63
2023-01-29T10:12:21.832Z,6.43
2023-01-29T10:14:58.161Z,8.90
2023-01-29T10:17:42.459Z,6.47
2023-01-29T10:20:40.466Z,6.30
2023-01-29T10:23:19.696Z,7.40
2023-01-29T10:25:49.708Z,6.03
2023-01-29T10:28:19.980Z,6.57
2023-01-29T10:30:50.778Z,6.70
2023-01-29T10:33:24.407Z,6.55
2023-01-29T10:35:59.086Z,6.30
2023-01-29T10:38:36.294Z,6.82
2023-01-29T10:41:19.253Z,6.30
2023-01-29T10:43:59.078Z,6.32
2023-01-29T10:46:43.724Z,6.20
2023-01-29T10:49:27.187Z,6.45
2023-01-29T10:52:12.193Z,6.60
2023-01-29T10:54:55.188Z,5.88
2023-01-29T10:57:36.568Z,5.75
2023-01-29T11:00:13.111Z,5.75
2023-01-29T11:02:45.031Z,6.47
2023-01-29T11:05:21.618Z,6.30
2023-01-29T11:08:01.954Z,6.65
2023-01-29T11:10:33.256Z,6.00
2023-01-29T11:13:00.987Z,6.28
2023-01-29T11:15:33.312Z,6.30
2023-01-29T11:18:13.592Z,6.07
2023-01-29T11:20:43.317Z,6.30
2023-01-29T11:23:26.670Z,6.28
2023-01-29T11:25:55.758Z,6.18
2023-01-29T11:28:41.222Z,6.68
2023-01-29T11:31:27.223Z,6.10
2023-01-29T11:34:04.997Z,6.35
2023-01-29T11:36:38.203Z,6.13
2023-01-29T11:39:18.502Z,7.75
2023-01-29T11:41:49.607Z,8.73
2023-01-29T11:44:21.961Z,7.88
2023-01-29T11:46:50.925Z,8.05
2023-01-29T11:49:33.157Z,8.07
2023-01-29T11:52:03.321Z,7.40
2023-01-29T11:54:36.887Z,7.57
2023-01-29T11:57:06.206Z,7.07
2023-01-29T11:59:42.837Z,7.85
2023-01-29T12:02:28.196Z,8.18
2023-01-29T12:04:58.176Z,7.60
2023-01-29T12:07:26.433Z,8.02
2023-01-29T12:09:57.367Z,7.70
2023-01-29T12:12:33.539Z,7.72
2023-01-29T12:15:20.739Z,7.32
2023-01-29T12:18:07.292Z,7.07
2023-01-29T12:20:40.304Z,7.20
2023-01-29T12:25:59.411Z,7.63
2023-01-29T12:28:45.848Z,8.98
2023-01-29T12:31:27.561Z,8.43
2023-01-29T12:34:03.394Z,8.10
2023-01-29T12:36:39.492Z,8.38
2023-01-29T12:39:07.440Z,8.25
2023-01-29T12:41:43.328Z,8.25
2023-01-29T12:44:17.203Z,10.18
2023-01-29T12:46:50.632Z,8.43
2023-01-29T12:49:24.399Z,7.85
2023-01-29T12:51:59.129Z,10.15
2023-01-29T12:54:36.172Z,8.55
2023-01-29T12:57:11.558Z,9.13
2023-01-29T12:59:44.185Z,8.77
2023-01-29T13:02:24.902Z,8.52
2023-01-29T13:05:00.469Z,11.30
2023-01-29T13:07:33.114Z,8.23
2023-01-29T13:10:08.524Z,7.65
2023-01-29T13:12:40.939Z,7.85
2023-01-29T13:15:21.958Z,7.20
2023-01-29T13:17:54.339Z,7.43
2023-01-29T13:20:29.921Z,8.02
2023-01-29T13:23:01.640Z,7.70
2023-01-29T13:25:29.416Z,8.10
2023-01-29T13:27:59.056Z,7.13
2023-01-29T13:30:29.202Z,8.15
2023-01-29T13:33:09.356Z,7.32
2023-01-29T13:35:40.264Z,6.93
2023-01-29T13:38:24.913Z,7.75
2023-01-29T13:40:53.726Z,7.60
2023-01-29T13:43:24.532Z,6.93
2023-01-29T13:45:54.233Z,7.90
2023-01-29T13:48:27.454Z,10.40
2023-01-29T13:50:57.194Z,8.75
2023-01-29T13:53:27.711Z,8.43
2023-01-29T13:55:55.754Z,8.10
2023-01-29T13:58:56.146Z,9.20
2023-01-29T14:02:08.727Z,8.65
2023-01-29T14:04:36.531Z,8.77
2023-01-29T14:07:40.937Z,9.32
2023-01-29T14:10:16.387Z,9.43
2023-01-29T14:12:45.815Z,9.05
2023-01-29T14:15:30.401Z,8.63
2023-01-29T14:18:14.564Z,7.38
2023-01-29T14:20:57.033Z,8.90
2023-01-29T14:23:36.833Z,8.57
2023-01-29T14:26:07.554Z,8.98
2023-01-29T14:28:36.294Z,8.20
2023-01-29T14:31:07.634Z,9.70
2023-01-29T14:33:38.341Z,9.20
2023-01-29T14:36:08.271Z,8.32
2023-01-29T14:38:36.399Z,7.82
2023-01-29T14:41:08.766Z,8.40
2023-01-29T14:43:36.654Z,8.02
2023-01-29T14:46:41.730Z,8.25
2023-01-29T14:49:11.442Z,8.10
2023-01-29T14:51:44.353Z,12.30
2023-01-29T14:56:59.457Z,7.95
2023-01-29T14:59:33.933Z,7.88
2023-01-29T15:02:06.339Z,7.78
2023-01-29T15:04:43.313Z,9.00
2023-01-29T15:07:23.133Z,9.75
2023-01-29T15:10:01.342Z,9.15
2023-01-29T15:12:49.946Z,8.35
2023-01-29T15:15:22.669Z,8.52
2023-01-29T15:17:57.135Z,8.55
2023-01-29T15:20:33.158Z,8.65
2023-01-29T15:23:03.380Z,8.50
2023-01-29T15:25:36.957Z,8.25
2023-01-29T15:28:08.889Z,10.00
2023-01-29T15:30:37.859Z,9.10
2023-01-29T15:33:10.728Z,9.05
2023-01-29T15:35:42.131Z,9.55
2023-01-29T15:38:17.867Z,9.75
2023-01-29T15:40:54.050Z,8.77
2023-01-29T15:43:24.108Z,8.57
2023-01-29T15:45:53.562Z,9.85
2023-01-29T15:48:34.257Z,9.95
2023-01-29T15:51:07.488Z,9.73
2023-01-29T15:53:39.336Z,10.02
2023-01-29T15:56:11.638Z,10.38
2023-01-29T15:58:41.780Z,9.93
2023-01-29T16:01:12.265Z,9.73
2023-01-29T16:03:53.304Z,10.27
2023-01-29T16:06:24.084Z,9.68
2023-01-29T16:08:54.944Z,10.02
2023-01-29T16:11:23.647Z,10.13
2023-01-29T16:13:52.860Z,11.05
2023-01-29T16:16:24.892Z,10.25
2023-01-29T16:19:00.500Z,10.80
2023-01-29T16:21:34.255Z,11.38
2023-01-29T16:24:03.996Z,12.07
2023-01-29T16:26:35.295Z,11.52
2023-01-29T16:29:06.790Z,13.32
2023-01-29T16:31:36.563Z,15.77
2023-01-29T16:34:08.659Z,16.45
2023-01-29T16:36:38.199Z,14.47
2023-01-29T16:39:15.760Z,12.73
2023-01-29T16:41:44.418Z,12.00
2023-01-29T16:44:33.919Z,11.10
2023-01-29T16:47:12.921Z,12.75
2023-01-29T16:49:47.427Z,11.95
2023-01-29T16:52:20.969Z,11.75
2023-01-29T16:54:49.074Z,11.85
2023-01-29T16:57:21.489Z,11.63
2023-01-29T16:59:51.293Z,13.23
2023-01-29T17:02:25.284Z,13.40
2023-01-29T17:04:54.901Z,11.20
2023-01-29T17:07:24.556Z,12.27
2023-01-29T17:09:55.817Z,12.38
2023-01-29T17:12:27.054Z,11.30
2023-01-29T17:14:57.705Z,11.38
2023-01-29T17:17:31.859Z,16.13
2023-01-29T17:20:03.723Z,14.52
2023-01-29T17:22:33.499Z,11.20
2023-01-29T17:25:01.587Z,10.25
2023-01-29T17:27:33.028Z,10.27
2023-01-29T17:30:01.331Z,9.77
2023-01-29T17:32:44.967Z,9.98
2023-01-29T17:35:17.216Z,9.95
2023-01-29T17:37:46.811Z,10.35
2023-01-29T17:40:22.670Z,9.45
2023-01-29T17:42:50.763Z,9.65
2023-01-29T17:45:19.182Z,10.00
2023-01-29T17:47:47.560Z,10.20
2023-01-29T17:50:22.712Z,13.63
2023-01-29T17:52:53.320Z,12.88
2023-01-29T17:55:21.720Z,11.63
2023-01-29T17:57:49.946Z,12.02
2023-01-29T18:00:21.432Z,11.48
2023-01-29T18:02:49.906Z,12.00
2023-01-29T18:05:19.576Z,11.82
2023-01-29T18:07:51.682Z,11.02
2023-01-29T18:10:23.032Z,11.55
2023-01-29T18:12:50.722Z,11.32
2023-01-29T18:15:19.141Z,14.40
2023-01-29T18:17:48.446Z,14.10
2023-01-29T18:20:20.601Z,14.40
2023-01-29T18:22:48.816Z,15.50
2023-01-29T18:25:17.366Z,16.92
2023-01-29T18:27:46.796Z,17.30
2023-01-29T18:30:15.651Z,15.50
2023-01-29T18:32:43.560Z,14.38
2023-01-29T18:35:11.480Z,14.02
2023-01-29T18:37:39.287Z,13.93
2023-01-29T18:40:08.290Z,12.30
2023-01-29T18:42:36.028Z,19.83
2023-01-29T18:45:06.043Z,10.73
2023-01-29T18:47:34.065Z,11.93
2023-01-29T18:50:01.824Z,14.05
2023-01-29T18:52:29.760Z,13.52
2023-01-29T18:54:57.458Z,12.70
2023-01-29T18:58:26.771Z,11.75
2023-01-29T19:00:15.045Z,11.18
2023-01-29T19:02:43.724Z,10.45
2023-01-29T19:05:11.489Z,9.00
2023-01-29T19:07:39.195Z,8.70
2023-01-29T19:10:12.447Z,9.10
2023-01-29T19:12:42.229Z,8.30
2023-01-29T19:15:11.375Z,9.52
2023-01-29T19:17:40.533Z,8.73
2023-01-29T19:20:09.705Z,8.52
2023-01-29T19:22:37.529Z,9.88
2023-01-29T19:25:06.188Z,9.00
2023-01-29T19:27:34.157Z,8.32
2023-01-29T19:30:02.158Z,8.88
2023-01-29T19:32:30.100Z,10.95
2023-01-29T19:34:59.525Z,9.90
2023-01-29T19:37:27.372Z,9.35
2023-01-29T19:39:55.144Z,9.45
2023-01-29T19:42:22.913Z,10.95
2023-01-29T19:44:51.197Z,10.23
2023-01-29T19:47:19.006Z,9.77
2023-01-29T19:49:46.821Z,10.25
2023-01-29T19:52:49.687Z,9.73
2023-01-29T19:57:47.146Z,9.63
2023-01-29T20:00:17.531Z,10.52
2023-01-29T20:02:45.593Z,9.88
2023-01-29T20:05:13.624Z,10.82
2023-01-29T20:07:42.854Z,10.27
2023-01-29T20:10:17.307Z,10.50
2023-01-29T20:12:45.669Z,11.55
2023-01-29T20:15:14.051Z,12.02
2023-01-29T20:17:42.335Z,10.55
2023-01-29T20:20:11.528Z,10.65
2023-01-29T20:22:39.361Z,10.93
2023-01-29T20:25:09.307Z,10.57
2023-01-29T20:27:37.077Z,10.98
2023-01-29T20:30:05.648Z,11.05
2023-01-29T20:32:33.365Z,13.55
2023-01-29T20:35:01.101Z,11.27
2023-01-29T20:37:28.901Z,11.23
2023-01-29T20:39:56.690Z,11.65
2023-01-29T20:42:25.935Z,10.40
2023-01-29T20:44:53.770Z,10.73
2023-01-29T20:47:21.603Z,11.15
2023-01-29T20:49:49.476Z,11.27
2023-01-29T20:52:17.234Z,10.73
2023-01-29T20:54:45.044Z,11.18
2023-01-29T20:57:12.861Z,11.85
2023-01-29T20:59:42.061Z,11.30
2023-01-29T21:02:11.906Z,11.55
2023-01-29T21:04:39.896Z,11.82
2023-01-29T21:07:07.753Z,11.60
2023-01-29T21:09:35.584Z,12.30
2023-01-29T21:12:05.374Z,11.88
2023-01-29T21:14:33.496Z,11.95
2023-01-29T21:17:03.265Z,11.88
2023-01-29T21:19:31.322Z,12.80
2023-01-29T21:21:59.196Z,12.25
2023-01-29T21:24:27.539Z,13.35
2023-01-29T21:26:55.321Z,13.20
2023-01-29T21:29:23.183Z,15.13
2023-01-29T21:31:51.081Z,13.10
2023-01-29T21:34:20.300Z,12.80
2023-01-29T21:36:48.199Z,12.85
2023-01-29T21:39:20.804Z,12.27
2023-01-29T21:42:07.638Z,13.88
2023-01-29T21:44:36.060Z,12.00
2023-01-29T21:47:12.346Z,11.73
2023-01-29T21:49:42.915Z,12.70
2023-01-29T21:52:12.315Z,11.95
2023-01-29T21:54:40.884Z,12.40
2023-01-29T21:57:12.945Z,12.65
2023-01-29T21:59:40.689Z,12.07
2023-01-29T22:02:13.324Z,11.63
2023-01-29T22:04:43.287Z,11.68
2023-01-29T22:07:11.344Z,11.38
2023-01-29T22:09:39.561Z,12.88
2023-01-29T22:12:08.810Z,12.10
2023-01-29T22:14:36.612Z,11.10
2023-01-29T22:17:04.327Z,11.68
2023-01-29T22:19:32.122Z,11.45
2023-01-29T22:22:01.474Z,10.88
2023-01-29T22:24:29.241Z,11.82
2023-01-29T22:26:56.991Z,11.80
2023-01-29T22:29:24.717Z,11.45
2023-01-29T22:31:52.454Z,11.32
2023-01-29T22:34:20.136Z,12.38
2023-01-29T22:36:47.879Z,11.98
2023-01-29T22:39:16.989Z,11.95
2023-01-29T22:41:44.700Z,11.82
2023-01-29T22:44:12.673Z,12.63
2023-01-29T22:46:40.444Z,12.52
2023-01-29T22:49:08.264Z,11.52
2023-01-29T22:51:36.151Z,12.23
2023-01-29T22:54:04.374Z,11.82
2023-01-29T22:56:33.599Z,11.10
2023-01-29T22:59:02.097Z,11.95
2023-01-29T23:01:32.018Z,12.65
2023-01-29T23:03:59.813Z,11.02
2023-01-29T23:06:27.507Z,11.70
2023-01-29T23:08:55.431Z,11.68
2023-01-29T23:11:23.802Z,11.07
2023-01-29T23:13:54.597Z,11.95
2023-01-29T23:16:26.774Z,12.15
2023-01-29T23:18:56.588Z,11.15
2023-01-29T23:21:26.000Z,11.23
2023-01-29T23:23:55.318Z,11.73
2023-01-29T23:26:40.601Z,12.27
2023-01-29T23:29:10.247Z,11.20
2023-01-29T23:31:38.066Z,11.65
2023-01-29T23:34:06.343Z,11.30
2023-01-29T23:36:34.129Z,12.43
2023-01-29T23:39:01.918Z,11.82
2023-01-29T23:41:29.737Z,11.60
2023-01-29T23:43:57.588Z,11.40
2023-01-29T23:46:26.738Z,12.40
2023-01-29T23:48:54.562Z,11.73
2023-01-29T23:51:22.600Z,11.38
2023-01-29T23:53:50.343Z,12.43
2023-01-29T23:56:18.111Z,11.43
2023-01-29T23:58:46.093Z,11.93
